Time;durP1;ratioP1;P1;durP2;ratioP2;P2;SDS_P1;SDS_P2;PMS_P1;PMS_P2;Temp;Humidity;BMP_temperature;BMP_pressure;BME280_temperature;BME280_humidity;BME280_pressure;Samples;Min_cycle;Max_cycle;Signal;HPM_P1;HPM_P2
2023/07/10 00:00:04;;;;;;;;;;;21.50;99.90;;;;;;6274143;22;19903;-83
2023/07/10 00:02:38;;;;;;;;;;;21.30;99.90;;;;;;6299316;22;19907;-83
2023/07/10 00:05:07;;;;;;;;;;;21.20;99.90;;;;;;6274473;22;19903;-83
2023/07/10 00:07:32;;;;;;;;;;;21.00;99.90;;;;;;6274125;22;19986;-83
2023/07/10 00:09:58;;;;;;;;;;;21.00;99.90;;;;;;6248895;22;19934;-83
2023/07/10 00:12:25;;;;;;;;;;;20.90;99.90;;;;;;6276221;22;20366;-83
2023/07/10 00:14:50;;;;;;;;;;;20.70;99.90;;;;;;6274574;22;19910;-83
2023/07/10 00:17:16;;;;;;;;;;;20.60;99.90;;;;;;6274411;22;19930;-83
2023/07/10 00:19:42;;;;;;;;;;;20.50;99.90;;;;;;6300320;22;20235;-83
2023/07/10 00:22:08;;;;;;;;;;;20.50;99.90;;;;;;6274257;22;19914;-83
2023/07/10 00:24:33;;;;;;;;;;;20.50;99.90;;;;;;6274617;22;19903;-83
2023/07/10 00:26:59;;;;;;;;;;;20.40;99.90;;;;;;6248814;22;20242;-83
2023/07/10 00:29:26;;;;;;;;;;;20.40;99.90;;;;;;6248680;22;19911;-83
2023/07/10 00:31:52;;;;;;;;;;;20.30;99.90;;;;;;6274164;22;19956;-83
2023/07/10 00:34:18;;;;;;;;;;;20.20;99.90;;;;;;6249238;22;19907;-83
2023/07/10 00:36:48;;;;;;;;;;;20.20;99.90;;;;;;6274373;22;19938;-83
2023/07/10 00:39:23;;;;;;;;;;;20.20;99.90;;;;;;6300490;22;20243;-83
2023/07/10 00:41:51;;;;;;;;;;;20.20;99.90;;;;;;6248825;22;19918;-82
2023/07/10 00:44:18;;;;;;;;;;;20.30;99.90;;;;;;6274613;22;19914;-83
2023/07/10 00:47:06;;;;;;;;;;;20.40;99.90;;;;;;6274569;22;19903;-83
2023/07/10 00:49:40;;;;;;;;;;;20.40;99.90;;;;;;6300108;22;20474;-83
2023/07/10 00:52:12;;;;;;;;;;;20.50;99.90;;;;;;6299728;22;19907;-83
2023/07/10 00:54:39;;;;;;;;;;;20.60;99.90;;;;;;6249500;22;19910;-83
2023/07/10 00:57:10;;;;;;;;;;;20.60;99.90;;;;;;6275934;22;19907;-83
2023/07/10 00:59:38;;;;;;;;;;;20.60;99.90;;;;;;6275783;22;19933;-83
2023/07/10 01:02:07;;;;;;;;;;;20.70;99.90;;;;;;6276101;22;19910;-83
2023/07/10 01:04:40;;;;;;;;;;;20.60;99.90;;;;;;6276325;22;20323;-83
2023/07/10 01:07:07;;;;;;;;;;;20.60;99.90;;;;;;6276332;22;20329;-83
2023/07/10 01:09:35;;;;;;;;;;;20.60;99.90;;;;;;6301660;22;20433;-83
2023/07/10 01:12:03;;;;;;;;;;;20.50;99.90;;;;;;6250390;22;19914;-83
2023/07/10 01:14:34;;;;;;;;;;;20.50;99.90;;;;;;6301792;22;19910;-83
2023/07/10 01:17:03;;;;;;;;;;;20.60;99.90;;;;;;6302235;22;20273;-83
2023/07/10 01:19:29;;;;;;;;;;;20.60;99.90;;;;;;6276359;22;20356;-83
2023/07/10 01:21:55;;;;;;;;;;;20.70;99.90;;;;;;6275971;22;19907;-83
2023/07/10 01:24:20;;;;;;;;;;;20.80;99.90;;;;;;6276115;22;20454;-83
2023/07/10 01:26:46;;;;;;;;;;;20.90;99.90;;;;;;6276435;22;19907;-83
2023/07/10 01:29:19;;;;;;;;;;;21.00;99.90;;;;;;6276556;22;19934;-84
2023/07/10 01:31:45;;;;;;;;;;;21.10;99.90;;;;;;6250621;22;19934;-83
2023/07/10 01:34:12;;;;;;;;;;;21.30;99.90;;;;;;6276035;22;19911;-83
2023/07/10 01:36:41;;;;;;;;;;;21.50;99.90;;;;;;6275925;22;19907;-83
2023/07/10 01:39:10;;;;;;;;;;;21.60;99.90;;;;;;6277608;22;19907;-83
2023/07/10 01:41:40;;;;;;;;;;;21.70;99.90;;;;;;6249507;22;20239;-83
2023/07/10 01:44:18;;;;;;;;;;;21.80;99.90;;;;;;6301749;22;20672;-83
2023/07/10 01:46:43;;;;;;;;;;;21.90;99.90;;;;;;6275818;22;20289;-83
2023/07/10 01:49:09;;;;;;;;;;;21.80;99.90;;;;;;6250235;22;19941;-84
2023/07/10 01:51:35;;;;;;;;;;;21.90;99.90;;;;;;6276121;22;19943;-83
2023/07/10 01:54:03;;;;;;;;;;;21.90;99.90;;;;;;6276071;22;19907;-83
2023/07/10 01:56:29;;;;;;;;;;;21.90;99.90;;;;;;6277657;22;19903;-83
2023/07/10 01:58:54;;;;;;;;;;;22.00;99.90;;;;;;6275697;22;19910;-84
2023/07/10 02:01:20;;;;;;;;;;;22.10;99.90;;;;;;6275401;22;19914;-83
2023/07/10 02:03:46;;;;;;;;;;;22.20;99.90;;;;;;6275598;22;19905;-84
2023/07/10 02:06:12;;;;;;;;;;;22.30;99.90;;;;;;6275847;22;19903;-84
2023/07/10 02:08:39;;;;;;;;;;;22.30;99.90;;;;;;6276003;22;19909;-83
2023/07/10 02:11:05;;;;;;;;;;;22.30;99.90;;;;;;6276008;22;19911;-83
2023/07/10 02:13:30;;;;;;;;;;;22.30;99.90;;;;;;6276264;22;19903;-83
2023/07/10 02:16:00;;;;;;;;;;;22.40;99.90;;;;;;6301653;22;19925;-83
2023/07/10 02:18:26;;;;;;;;;;;22.30;99.90;;;;;;6276098;22;19990;-83
2023/07/10 02:20:53;;;;;;;;;;;22.30;99.90;;;;;;6301061;22;19941;-83
2023/07/10 02:23:19;;;;;;;;;;;22.20;99.90;;;;;;6275962;22;19904;-84
2023/07/10 02:25:45;;;;;;;;;;;22.10;99.90;;;;;;6275677;22;19914;-84
2023/07/10 02:28:11;;;;;;;;;;;22.00;99.90;;;;;;6274981;22;19907;-83
2023/07/10 02:30:38;;;;;;;;;;;22.00;99.90;;;;;;6274624;22;20007;-83
2023/07/10 02:33:03;;;;;;;;;;;21.90;99.90;;;;;;6249493;22;19910;-83
2023/07/10 02:35:29;;;;;;;;;;;21.80;99.90;;;;;;6274711;22;19903;-83
2023/07/10 02:37:55;;;;;;;;;;;21.70;99.90;;;;;;6274979;22;20302;-83
2023/07/10 02:40:20;;;;;;;;;;;21.60;99.90;;;;;;6248888;22;19911;-83
2023/07/10 02:42:46;;;;;;;;;;;21.50;99.90;;;;;;6274639;22;19975;-83
2023/07/10 02:45:12;;;;;;;;;;;21.40;99.90;;;;;;6249905;22;19904;-84
2023/07/10 02:47:38;;;;;;;;;;;21.40;99.90;;;;;;6249274;22;19907;-83
2023/07/10 02:50:04;;;;;;;;;;;21.40;99.90;;;;;;6274620;22;19929;-83
2023/07/10 02:52:30;;;;;;;;;;;21.30;99.90;;;;;;6275486;22;19910;-83
2023/07/10 02:54:55;;;;;;;;;;;21.30;99.90;;;;;;6250275;22;19982;-84
2023/07/10 02:57:21;;;;;;;;;;;21.30;99.90;;;;;;6250239;22;20422;-83
2023/07/10 02:59:47;;;;;;;;;;;21.30;99.90;;;;;;6275285;22;19903;-83
2023/07/10 03:02:13;;;;;;;;;;;21.30;99.90;;;;;;6275269;22;19911;-83
2023/07/10 03:04:38;;;;;;;;;;;21.30;99.90;;;;;;6249728;22;19907;-83
2023/07/10 03:07:04;;;;;;;;;;;21.40;99.90;;;;;;6275028;22;19926;-83
2023/07/10 03:09:30;;;;;;;;;;;21.50;99.90;;;;;;6274635;22;19903;-83
2023/07/10 03:11:56;;;;;;;;;;;21.50;99.90;;;;;;6249398;22;19903;-83
2023/07/10 03:14:21;;;;;;;;;;;21.50;99.90;;;;;;6274998;22;19974;-83
2023/07/10 03:16:47;;;;;;;;;;;21.40;99.90;;;;;;6248323;22;19904;-83
2023/07/10 03:19:13;;;;;;;;;;;21.30;99.90;;;;;;6274577;22;20224;-83
2023/07/10 03:21:38;;;;;;;;;;;21.10;99.90;;;;;;6274673;22;19918;-83
2023/07/10 03:24:04;;;;;;;;;;;21.10;99.90;;;;;;6249163;22;20374;-83
2023/07/10 03:26:30;;;;;;;;;;;21.20;99.90;;;;;;6274415;22;19909;-83
2023/07/10 03:29:03;;;;;;;;;;;21.20;99.90;;;;;;6249458;22;19949;-85
2023/07/10 03:31:29;;;;;;;;;;;21.10;99.90;;;;;;6275611;22;19903;-85
2023/07/10 03:33:54;;;;;;;;;;;21.10;99.90;;;;;;6249910;22;19961;-85
2023/07/10 03:36:20;;;;;;;;;;;21.10;99.90;;;;;;6275343;22;20212;-85
2023/07/10 03:42:14;;;;;;;;;;;20.80;99.90;;;;;;6277392;22;19994;-86
2023/07/10 03:44:40;;;;;;;;;;;20.80;99.90;;;;;;6275355;22;19931;-85
2023/07/10 03:47:06;;;;;;;;;;;20.80;99.90;;;;;;6275629;22;19991;-85
2023/07/10 03:49:32;;;;;;;;;;;20.80;99.90;;;;;;6275367;22;19960;-85
2023/07/10 03:52:07;;;;;;;;;;;20.80;99.90;;;;;;6275311;22;19907;-85
2023/07/10 03:54:33;;;;;;;;;;;20.70;99.90;;;;;;6275551;22;19904;-85
2023/07/10 03:56:59;;;;;;;;;;;20.60;99.90;;;;;;6275627;22;19910;-85
2023/07/10 03:59:24;;;;;;;;;;;20.60;99.90;;;;;;6274381;22;19948;-85
2023/07/10 04:01:50;;;;;;;;;;;20.50;99.90;;;;;;6249388;22;19906;-85
2023/07/10 04:04:16;;;;;;;;;;;20.50;99.90;;;;;;6249703;22;19910;-85
2023/07/10 04:06:41;;;;;;;;;;;20.60;99.90;;;;;;6275024;22;20538;-86
2023/07/10 04:09:07;;;;;;;;;;;20.70;99.90;;;;;;6274863;22;20341;-85
2023/07/10 04:11:34;;;;;;;;;;;20.80;99.90;;;;;;6275132;22;19910;-85
2023/07/10 04:14:00;;;;;;;;;;;20.90;99.90;;;;;;6275204;22;19903;-85
2023/07/10 04:16:27;;;;;;;;;;;20.90;99.90;;;;;;6274720;22;19914;-85
2023/07/10 04:18:53;;;;;;;;;;;20.90;99.90;;;;;;6274936;22;19914;-85
2023/07/10 04:21:19;;;;;;;;;;;20.90;99.90;;;;;;6274063;22;20261;-85
2023/07/10 04:23:45;;;;;;;;;;;20.90;99.90;;;;;;6274585;22;19914;-85
2023/07/10 04:26:21;;;;;;;;;;;20.90;99.90;;;;;;6274598;22;20337;-85
2023/07/10 04:28:48;;;;;;;;;;;21.00;99.90;;;;;;6274898;22;20322;-85
2023/07/10 04:31:15;;;;;;;;;;;21.10;99.90;;;;;;6276965;22;19913;-85
2023/07/10 04:33:41;;;;;;;;;;;21.10;99.90;;;;;;6276832;22;19903;-85
2023/07/10 04:36:35;;;;;;;;;;;21.20;99.90;;;;;;6302804;22;20226;-85
2023/07/10 04:39:02;;;;;;;;;;;21.20;99.90;;;;;;6277413;22;19910;-85
2023/07/10 04:41:28;;;;;;;;;;;21.40;99.90;;;;;;6276949;22;19913;-85
2023/07/10 04:43:53;;;;;;;;;;;21.60;99.90;;;;;;6277497;22;20284;-86
2023/07/10 04:46:20;;;;;;;;;;;21.70;99.90;;;;;;6277019;22;20231;-85
2023/07/10 04:48:46;;;;;;;;;;;21.90;99.90;;;;;;6302619;22;20234;-85
2023/07/10 04:51:13;;;;;;;;;;;22.20;99.90;;;;;;6277459;22;19961;-85
2023/07/10 04:53:38;;;;;;;;;;;22.30;99.90;;;;;;6277062;22;19903;-85
2023/07/10 04:56:05;;;;;;;;;;;22.20;99.90;;;;;;6276525;22;20281;-85
2023/07/10 04:58:45;;;;;;;;;;;22.10;99.90;;;;;;6276754;22;19910;-85
2023/07/10 05:01:10;;;;;;;;;;;22.20;99.90;;;;;;6276475;22;19964;-86
2023/07/10 05:03:42;;;;;;;;;;;22.30;99.90;;;;;;6276800;22;20257;-85
2023/07/10 05:06:08;;;;;;;;;;;22.40;99.90;;;;;;6278614;22;19907;-86
2023/07/10 05:08:34;;;;;;;;;;;22.50;99.90;;;;;;6276938;22;20461;-85
2023/07/10 05:11:00;;;;;;;;;;;22.60;99.90;;;;;;6276247;22;20005;-86
2023/07/10 05:13:28;;;;;;;;;;;22.70;99.90;;;;;;6250355;22;19903;-85
2023/07/10 05:15:55;;;;;;;;;;;22.70;99.90;;;;;;6276638;22;19935;-86
2023/07/10 05:18:21;;;;;;;;;;;22.80;99.90;;;;;;6276816;22;20577;-85
2023/07/10 05:20:47;;;;;;;;;;;22.90;99.90;;;;;;6278506;22;19903;-86
2023/07/10 05:26:53;;;;;;;;;;;22.90;99.90;;;;;;6278967;22;19965;-85
2023/07/10 05:29:22;;;;;;;;;;;22.70;99.90;;;;;;6250885;22;19910;-85
2023/07/10 05:31:48;;;;;;;;;;;22.50;99.90;;;;;;6276659;22;19986;-85
2023/07/10 05:34:15;;;;;;;;;;;22.40;99.90;;;;;;6251076;22;19939;-86
2023/07/10 05:36:41;;;;;;;;;;;22.30;99.90;;;;;;6277029;22;20327;-86
2023/07/10 05:39:06;;;;;;;;;;;22.20;99.90;;;;;;6276809;22;19906;-86
2023/07/10 05:41:34;;;;;;;;;;;22.30;99.90;;;;;;6250688;22;20264;-86
2023/07/10 05:44:00;;;;;;;;;;;22.30;99.90;;;;;;6276567;22;19911;-86
2023/07/10 05:46:35;;;;;;;;;;;22.40;99.90;;;;;;6276296;22;19907;-86
2023/07/10 05:49:00;;;;;;;;;;;22.40;99.90;;;;;;6276972;22;19907;-85
2023/07/10 05:51:26;;;;;;;;;;;22.40;99.90;;;;;;6250654;22;19953;-86
2023/07/10 05:53:52;;;;;;;;;;;22.30;99.90;;;;;;6302341;22;19972;-85
2023/07/10 05:56:18;;;;;;;;;;;22.20;99.90;;;;;;6276400;22;19903;-84
2023/07/10 05:58:43;;;;;;;;;;;22.10;99.90;;;;;;6276653;22;20386;-85
2023/07/10 06:01:10;;;;;;;;;;;22.00;99.90;;;;;;6250642;22;19920;-86
2023/07/10 06:03:36;;;;;;;;;;;22.00;99.90;;;;;;6276751;22;20322;-86
2023/07/10 06:06:03;;;;;;;;;;;21.90;99.90;;;;;;6250940;22;19978;-86
2023/07/10 06:08:29;;;;;;;;;;;21.90;99.90;;;;;;6276326;22;19907;-86
2023/07/10 06:10:56;;;;;;;;;;;21.90;99.90;;;;;;6275700;22;19914;-85
2023/07/10 06:13:22;;;;;;;;;;;21.90;99.90;;;;;;6275994;22;20231;-85
2023/07/10 06:15:49;;;;;;;;;;;21.90;99.90;;;;;;6302102;22;19998;-86
2023/07/10 06:18:15;;;;;;;;;;;22.10;99.90;;;;;;6276295;22;19960;-85
2023/07/10 06:20:41;;;;;;;;;;;22.20;99.90;;;;;;6250761;22;19907;-86
2023/07/10 06:23:07;;;;;;;;;;;22.30;99.90;;;;;;6276074;22;19907;-85
2023/07/10 06:25:33;;;;;;;;;;;22.40;99.90;;;;;;6250582;22;19911;-85
2023/07/10 06:27:59;;;;;;;;;;;22.50;99.90;;;;;;6275942;22;19903;-85
2023/07/10 06:30:24;;;;;;;;;;;22.60;99.90;;;;;;6249812;22;19910;-85
2023/07/10 06:32:50;;;;;;;;;;;22.80;99.90;;;;;;6276195;22;19903;-85
2023/07/10 06:35:16;;;;;;;;;;;22.90;99.90;;;;;;6250323;22;19914;-86
2023/07/10 06:37:43;;;;;;;;;;;23.10;99.90;;;;;;6301814;22;19983;-86
2023/07/10 06:40:14;;;;;;;;;;;23.10;99.90;;;;;;6301666;22;19957;-85
2023/07/10 06:42:40;;;;;;;;;;;23.10;99.90;;;;;;6275671;22;19907;-86
2023/07/10 06:45:11;;;;;;;;;;;23.00;99.90;;;;;;6275978;22;20339;-85
2023/07/10 06:47:39;;;;;;;;;;;23.00;99.90;;;;;;6275764;22;19903;-85
2023/07/10 06:50:06;;;;;;;;;;;22.90;99.90;;;;;;6275960;22;19909;-85
2023/07/10 06:52:32;;;;;;;;;;;22.90;99.90;;;;;;6275253;22;19903;-86
2023/07/10 06:54:58;;;;;;;;;;;22.90;99.90;;;;;;6275908;22;20322;-85
2023/07/10 06:57:24;;;;;;;;;;;22.80;99.90;;;;;;6250514;22;19903;-85
2023/07/10 06:59:49;;;;;;;;;;;22.80;99.90;;;;;;6250344;22;20374;-86
2023/07/10 07:02:15;;;;;;;;;;;22.80;99.90;;;;;;6301461;22;19918;-85
2023/07/10 07:04:41;;;;;;;;;;;22.80;99.90;;;;;;6276047;22;19910;-86
2023/07/10 07:07:07;;;;;;;;;;;22.70;99.90;;;;;;6301773;22;19903;-87
2023/07/10 07:09:33;;;;;;;;;;;22.80;99.90;;;;;;6301481;22;19907;-86
2023/07/10 07:11:59;;;;;;;;;;;22.90;99.90;;;;;;6275010;22;19910;-85
2023/07/10 07:14:25;;;;;;;;;;;22.90;99.90;;;;;;6250104;22;19907;-85
2023/07/10 07:16:50;;;;;;;;;;;23.00;99.90;;;;;;6275058;22;19907;-86
2023/07/10 07:19:16;;;;;;;;;;;22.90;99.90;;;;;;6301886;22;19989;-86
2023/07/10 07:21:42;;;;;;;;;;;23.00;99.90;;;;;;6249815;22;19990;-86
2023/07/10 07:24:07;;;;;;;;;;;23.20;99.90;;;;;;6275509;22;20258;-86
2023/07/10 07:26:33;;;;;;;;;;;23.40;99.90;;;;;;6249877;22;19953;-86
2023/07/10 07:28:59;;;;;;;;;;;24.00;99.90;;;;;;6250056;22;19909;-85
2023/07/10 07:31:25;;;;;;;;;;;25.00;99.90;;;;;;6275385;22;19903;-86
2023/07/10 07:33:51;;;;;;;;;;;25.90;99.90;;;;;;6276075;22;20035;-85
2023/07/10 07:36:16;;;;;;;;;;;26.50;99.90;;;;;;6276064;22;19986;-86
2023/07/10 07:38:51;;;;;;;;;;;27.00;99.90;;;;;;6275707;22;19909;-86
2023/07/10 07:41:17;;;;;;;;;;;27.50;99.90;;;;;;6275847;22;19968;-86
2023/07/10 07:43:43;;;;;;;;;;;26.50;99.90;;;;;;6275300;22;20315;-86
2023/07/10 07:46:09;;;;;;;;;;;25.60;99.90;;;;;;6249756;22;19957;-85
2023/07/10 07:48:50;;;;;;;;;;;24.90;99.90;;;;;;6275061;22;20204;-85
2023/07/10 07:51:16;;;;;;;;;;;24.70;99.90;;;;;;6249737;22;19956;-86
2023/07/10 07:53:41;;;;;;;;;;;24.40;99.90;;;;;;6275455;22;19939;-85
2023/07/10 07:56:07;;;;;;;;;;;24.50;99.90;;;;;;6275619;22;19910;-86
2023/07/10 07:58:33;;;;;;;;;;;24.50;99.90;;;;;;6275185;22;20335;-86
2023/07/10 08:01:02;;;;;;;;;;;24.50;99.90;;;;;;6249110;22;19909;-86
2023/07/10 08:03:28;;;;;;;;;;;25.00;99.90;;;;;;6275137;22;20301;-86
2023/07/10 08:05:54;;;;;;;;;;;25.80;99.90;;;;;;6275564;22;19907;-86
2023/07/10 08:08:21;;;;;;;;;;;26.50;99.90;;;;;;6275304;22;19934;-85
2023/07/10 08:10:48;;;;;;;;;;;26.80;99.90;;;;;;6275165;22;20580;-87
2023/07/10 08:13:14;;;;;;;;;;;27.50;99.90;;;;;;6275262;22;19907;-86
2023/07/10 08:15:40;;;;;;;;;;;28.30;99.90;;;;;;6275004;22;19957;-86
2023/07/10 08:18:05;;;;;;;;;;;28.90;99.90;;;;;;6275457;22;19907;-87
2023/07/10 08:20:32;;;;;;;;;;;28.90;99.90;;;;;;6275386;22;19903;-87
2023/07/10 08:22:57;;;;;;;;;;;28.70;99.90;;;;;;6301299;22;19907;-87
2023/07/10 08:25:23;;;;;;;;;;;28.40;99.90;;;;;;6275731;22;19903;-86
2023/07/10 08:27:49;;;;;;;;;;;28.50;99.90;;;;;;6249877;22;19964;-87
2023/07/10 08:30:15;;;;;;;;;;;28.60;99.90;;;;;;6249558;22;20326;-86
2023/07/10 08:32:41;;;;;;;;;;;28.60;99.90;;;;;;6301260;22;19903;-86
2023/07/10 08:35:07;;;;;;;;;;;28.50;99.90;;;;;;6275129;22;19934;-87
2023/07/10 08:37:33;;;;;;;;;;;28.50;99.90;;;;;;6275551;22;19973;-85
2023/07/10 08:39:59;;;;;;;;;;;28.30;99.90;;;;;;6275750;22;19903;-86
2023/07/10 08:42:28;;;;;;;;;;;28.50;99.90;;;;;;6275217;22;19961;-86
2023/07/10 08:44:54;;;;;;;;;;;28.60;99.90;;;;;;6275361;22;19960;-83
2023/07/10 08:47:26;;;;;;;;;;;28.70;99.90;;;;;;6249072;22;19974;-86
2023/07/10 08:50:00;;;;;;;;;;;28.80;99.90;;;;;;6274778;22;19909;-86
2023/07/10 08:52:38;;;;;;;;;;;29.20;99.90;;;;;;6275099;22;19978;-87
2023/07/10 08:55:08;;;;;;;;;;;29.50;99.90;;;;;;6276584;22;19907;-87
2023/07/10 08:57:35;;;;;;;;;;;29.80;99.90;;;;;;6275169;22;19973;-86
2023/07/10 09:00:04;;;;;;;;;;;29.70;99.90;;;;;;6275030;22;19982;-86
2023/07/10 09:02:42;;;;;;;;;;;29.50;99.90;;;;;;6274803;22;19942;-86
2023/07/10 09:05:11;;;;;;;;;;;29.30;99.90;;;;;;6300979;22;20316;-87
2023/07/10 09:07:42;;;;;;;;;;;29.30;99.90;;;;;;6275448;22;19903;-87
2023/07/10 09:10:12;;;;;;;;;;;29.50;99.90;;;;;;6275515;22;19903;-85
2023/07/10 09:12:43;;;;;;;;;;;29.50;99.90;;;;;;6275586;22;19910;-86
2023/07/10 09:15:13;;;;;;;;;;;28.80;99.90;;;;;;6275746;22;19903;-86
2023/07/10 09:17:39;;;;;;;;;;;28.80;99.90;;;;;;6277454;22;19986;-88
2023/07/10 09:20:06;;;;;;;;;;;29.30;99.90;;;;;;6277014;22;20316;-87
2023/07/10 09:22:33;;;;;;;;;;;29.30;99.90;;;;;;6276947;22;19945;-86
2023/07/10 09:24:59;;;;;;;;;;;30.00;99.90;;;;;;6276967;22;19937;-84
2023/07/10 09:27:25;;;;;;;;;;;29.60;99.90;;;;;;6277046;22;19903;-84
2023/07/10 09:29:52;;;;;;;;;;;28.70;99.90;;;;;;6278169;22;20345;-84
2023/07/10 09:32:19;;;;;;;;;;;28.20;99.90;;;;;;6302400;22;19986;-85
2023/07/10 09:34:46;;;;;;;;;;;28.30;99.90;;;;;;6276804;22;19903;-85
2023/07/10 09:37:13;;;;;;;;;;;28.20;99.90;;;;;;6276776;22;19911;-86
2023/07/10 09:39:39;;;;;;;;;;;27.70;99.90;;;;;;6276488;22;19910;-86
2023/07/10 09:42:11;;;;;;;;;;;28.00;99.90;;;;;;6276611;22;19914;-85
2023/07/10 09:44:39;;;;;;;;;;;28.70;99.90;;;;;;6251013;22;19903;-86
2023/07/10 09:47:09;;;;;;;;;;;29.10;99.90;;;;;;6276631;22;19938;-86
2023/07/10 09:49:36;;;;;;;;;;;29.20;99.90;;;;;;6276388;22;19910;-87
2023/07/10 09:52:03;;;;;;;;;;;28.30;99.90;;;;;;6276778;22;20259;-83
2023/07/10 09:54:37;;;;;;;;;;;28.30;99.90;;;;;;6277062;22;20592;-83
2023/07/10 09:57:13;;;;;;;;;;;28.70;99.90;;;;;;6277196;22;20279;-84
2023/07/10 09:59:45;;;;;;;;;;;29.10;99.90;;;;;;6251183;22;19978;-86
2023/07/10 10:02:22;;;;;;;;;;;29.10;99.90;;;;;;6250903;22;19914;-87
2023/07/10 10:04:52;;;;;;;;;;;29.10;99.90;;;;;;6302666;22;20218;-87
2023/07/10 10:07:21;;;;;;;;;;;29.10;99.90;;;;;;6302838;22;19903;-87
2023/07/10 10:09:47;;;;;;;;;;;28.70;99.90;;;;;;6276664;22;19986;-86
2023/07/10 10:12:20;;;;;;;;;;;28.40;99.90;;;;;;6302395;22;19943;-87
2023/07/10 10:14:52;;;;;;;;;;;28.80;99.90;;;;;;6251331;22;20212;-86
2023/07/10 10:17:21;;;;;;;;;;;29.20;99.90;;;;;;6276480;22;19904;-86
2023/07/10 10:19:50;;;;;;;;;;;28.50;99.90;;;;;;6276074;22;19903;-87
2023/07/10 10:22:16;;;;;;;;;;;28.30;99.90;;;;;;6275979;22;19942;-86
2023/07/10 10:24:42;;;;;;;;;;;28.70;99.90;;;;;;6275963;22;19903;-86
2023/07/10 10:27:20;;;;;;;;;;;29.00;99.90;;;;;;6302239;22;20239;-86
2023/07/10 10:29:51;;;;;;;;;;;29.20;99.90;;;;;;6250979;22;19955;-86
2023/07/10 10:32:24;;;;;;;;;;;29.20;99.90;;;;;;6276019;22;19939;-86
2023/07/10 10:34:50;;;;;;;;;;;29.20;99.90;;;;;;6302023;22;20388;-85
2023/07/10 10:37:25;;;;;;;;;;;28.90;99.90;;;;;;6275647;22;20006;-86
2023/07/10 10:39:57;;;;;;;;;;;28.50;99.90;;;;;;6250632;22;19910;-87
2023/07/10 10:42:28;;;;;;;;;;;28.80;99.90;;;;;;6276203;22;19943;-87
2023/07/10 10:45:07;;;;;;;;;;;28.90;99.90;;;;;;6302248;22;19903;-86
2023/07/10 10:47:43;;;;;;;;;;;29.00;99.90;;;;;;6250681;22;19974;-86
2023/07/10 10:50:28;;;;;;;;;;;28.90;99.90;;;;;;6250288;22;19907;-86
2023/07/10 10:53:12;;;;;;;;;;;28.70;99.90;;;;;;6276197;22;19914;-87
2023/07/10 10:55:47;;;;;;;;;;;28.90;99.90;;;;;;6250686;22;19909;-87
2023/07/10 10:58:22;;;;;;;;;;;29.20;99.90;;;;;;6250186;22;19903;-86
2023/07/10 11:01:06;;;;;;;;;;;29.10;99.90;;;;;;6302202;22;19903;-87
2023/07/10 11:03:32;;;;;;;;;;;29.10;99.90;;;;;;6275664;22;19997;-87
2023/07/10 11:06:01;;;;;;;;;;;28.70;99.90;;;;;;6275853;22;19903;-87
2023/07/10 11:08:35;;;;;;;;;;;28.90;99.90;;;;;;6275307;22;19899;-87
2023/07/10 11:11:03;;;;;;;;;;;29.30;99.90;;;;;;6301045;22;19910;-86
2023/07/10 11:13:32;;;;;;;;;;;28.80;99.90;;;;;;6275580;22;20345;-87
2023/07/10 11:16:00;;;;;;;;;;;28.60;99.90;;;;;;6275110;22;19925;-86
2023/07/10 11:18:26;;;;;;;;;;;28.80;99.90;;;;;;6275637;22;19907;-87
2023/07/10 11:20:52;;;;;;;;;;;28.80;99.90;;;;;;6275803;22;19982;-85
2023/07/10 11:23:36;;;;;;;;;;;29.20;99.90;;;;;;6249824;22;19907;-87
2023/07/10 11:26:20;;;;;;;;;;;29.10;99.90;;;;;;6276076;22;19903;-86
2023/07/10 11:28:55;;;;;;;;;;;28.90;99.90;;;;;;6275653;22;19914;-87
2023/07/10 11:31:24;;;;;;;;;;;29.20;99.90;;;;;;6275849;22;19910;-87
2023/07/10 11:33:51;;;;;;;;;;;29.70;99.90;;;;;;6276007;22;19903;-86
2023/07/10 11:36:37;;;;;;;;;;;30.30;99.90;;;;;;6275672;22;19903;-87
2023/07/10 11:39:05;;;;;;;;;;;30.40;99.90;;;;;;6249920;22;21538;-87
2023/07/10 11:41:38;;;;;;;;;;;30.00;99.90;;;;;;6249764;22;19911;-87
2023/07/10 11:44:13;;;;;;;;;;;30.20;99.90;;;;;;6275544;22;19908;-86
2023/07/10 11:47:00;;;;;;;;;;;29.90;99.90;;;;;;6249967;22;20306;-86
2023/07/10 11:49:35;;;;;;;;;;;29.40;99.90;;;;;;6275539;22;19990;-87
2023/07/10 11:52:13;;;;;;;;;;;29.40;99.90;;;;;;6275393;22;19907;-87
2023/07/10 11:55:01;;;;;;;;;;;29.50;99.90;;;;;;6249716;22;19908;-87
2023/07/10 11:57:28;;;;;;;;;;;30.00;99.90;;;;;;6300882;22;20299;-88
2023/07/10 11:59:54;;;;;;;;;;;30.20;99.90;;;;;;6276729;22;19986;-87
2023/07/10 12:02:23;;;;;;;;;;;29.90;99.90;;;;;;6276921;22;20319;-87
2023/07/10 12:04:49;;;;;;;;;;;29.40;99.90;;;;;;6301464;22;19907;-87
2023/07/10 12:07:15;;;;;;;;;;;28.80;99.90;;;;;;6277226;22;19921;-87
2023/07/10 12:09:41;;;;;;;;;;;28.40;99.90;;;;;;6301097;22;20685;-87
2023/07/10 12:12:10;;;;;;;;;;;28.10;99.90;;;;;;6275524;22;19914;-87
2023/07/10 12:14:36;;;;;;;;;;;28.20;99.90;;;;;;6275355;22;19982;-87
2023/07/10 12:17:03;;;;;;;;;;;28.60;99.90;;;;;;6275517;22;19938;-86
2023/07/10 12:19:38;;;;;;;;;;;29.00;99.90;;;;;;6301716;22;20235;-87
2023/07/10 12:22:20;;;;;;;;;;;29.30;99.90;;;;;;6275775;22;19911;-87
2023/07/10 12:24:48;;;;;;;;;;;29.50;99.90;;;;;;6275523;22;19911;-86
2023/07/10 12:27:13;;;;;;;;;;;29.70;99.90;;;;;;6275554;22;19907;-86
2023/07/10 12:29:47;;;;;;;;;;;29.70;99.90;;;;;;6275732;22;20334;-87
2023/07/10 12:32:14;;;;;;;;;;;29.90;99.90;;;;;;6250200;22;20713;-87
2023/07/10 12:34:39;;;;;;;;;;;30.20;99.90;;;;;;6301419;22;19996;-86
2023/07/10 12:37:08;;;;;;;;;;;30.20;99.70;;;;;;6275522;22;19994;-87
2023/07/10 12:39:34;;;;;;;;;;;30.60;99.90;;;;;;6301811;22;19953;-86
2023/07/10 12:42:00;;;;;;;;;;;31.10;99.30;;;;;;6300700;22;19915;-87
2023/07/10 12:44:27;;;;;;;;;;;31.10;98.30;;;;;;6274749;22;19918;-87
2023/07/10 12:46:55;;;;;;;;;;;31.40;98.00;;;;;;6249380;22;19907;-86
2023/07/10 12:49:23;;;;;;;;;;;31.00;98.10;;;;;;6276592;22;19946;-87
2023/07/10 12:51:49;;;;;;;;;;;30.60;97.90;;;;;;6277298;22;19930;-86
2023/07/10 12:54:15;;;;;;;;;;;30.90;97.10;;;;;;6251665;22;19912;-87
2023/07/10 12:56:41;;;;;;;;;;;31.10;96.40;;;;;;6251668;22;19907;-85
2023/07/10 12:59:26;;;;;;;;;;;31.50;96.50;;;;;;6277140;22;19911;-84
2023/07/10 13:01:53;;;;;;;;;;;31.90;94.10;;;;;;6302823;22;19911;-86
2023/07/10 13:04:23;;;;;;;;;;;30.90;94.10;;;;;;6277503;22;19915;-87
2023/07/10 13:06:59;;;;;;;;;;;30.80;94.50;;;;;;6277318;22;19915;-87
2023/07/10 13:09:25;;;;;;;;;;;30.80;94.40;;;;;;6277322;22;19908;-86
2023/07/10 13:11:51;;;;;;;;;;;30.70;94.30;;;;;;6277217;22;19908;-87
2023/07/10 13:14:28;;;;;;;;;;;31.10;92.40;;;;;;6251453;22;19907;-84
2023/07/10 13:16:54;;;;;;;;;;;32.30;92.80;;;;;;6276856;22;19915;-84
2023/07/10 13:19:19;;;;;;;;;;;32.70;91.00;;;;;;6303053;22;19903;-84
2023/07/10 13:21:45;;;;;;;;;;;32.20;88.10;;;;;;6276612;22;19919;-85
2023/07/10 13:24:11;;;;;;;;;;;31.40;89.00;;;;;;6276899;22;20338;-87
2023/07/10 13:26:36;;;;;;;;;;;31.10;90.70;;;;;;6251887;22;19912;-87
2023/07/10 13:29:10;;;;;;;;;;;31.70;91.50;;;;;;6276683;22;19918;-87
2023/07/10 13:31:36;;;;;;;;;;;32.30;90.60;;;;;;6276822;22;19911;-87
2023/07/10 13:34:02;;;;;;;;;;;32.70;90.00;;;;;;6276903;22;19954;-87
2023/07/10 13:36:28;;;;;;;;;;;33.30;89.10;;;;;;6276669;22;19914;-87
2023/07/10 13:38:53;;;;;;;;;;;32.90;84.90;;;;;;6277093;22;20022;-87
2023/07/10 13:41:21;;;;;;;;;;;32.10;84.20;;;;;;6276762;22;20304;-87
2023/07/10 13:43:47;;;;;;;;;;;31.80;86.10;;;;;;6276877;22;19914;-86
2023/07/10 13:46:16;;;;;;;;;;;31.50;87.30;;;;;;6302911;22;19907;-86
2023/07/10 13:48:52;;;;;;;;;;;31.60;88.20;;;;;;6276922;22;19966;-87
2023/07/10 13:51:19;;;;;;;;;;;32.30;87.20;;;;;;6276755;22;19912;-86
2023/07/10 13:53:44;;;;;;;;;;;32.30;86.60;;;;;;6276885;22;19907;-85
2023/07/10 13:56:11;;;;;;;;;;;32.10;83.70;;;;;;6278500;22;19987;-86
2023/07/10 13:58:37;;;;;;;;;;;31.30;84.10;;;;;;6276889;22;19978;-87
2023/07/10 14:01:03;;;;;;;;;;;30.90;85.90;;;;;;6302469;22;20323;-87
2023/07/10 14:03:29;;;;;;;;;;;31.40;84.70;;;;;;6251173;22;19915;-87
2023/07/10 14:05:55;;;;;;;;;;;31.80;85.00;;;;;;6276719;22;19976;-87
2023/07/10 14:08:22;;;;;;;;;;;32.70;81.60;;;;;;6276488;22;19908;-86
2023/07/10 14:10:50;;;;;;;;;;;33.10;79.00;;;;;;6276539;22;19949;-85
2023/07/10 14:13:15;;;;;;;;;;;33.40;76.50;;;;;;6276880;22;19911;-85
2023/07/10 14:15:42;;;;;;;;;;;33.50;76.30;;;;;;6302494;22;19961;-84
2023/07/10 14:18:21;;;;;;;;;;;33.20;76.40;;;;;;6275968;22;20315;-84
2023/07/10 14:20:47;;;;;;;;;;;33.10;76.70;;;;;;6275790;22;19907;-84
2023/07/10 14:23:13;;;;;;;;;;;32.20;78.80;;;;;;6250711;22;19960;-85
2023/07/10 14:25:39;;;;;;;;;;;32.20;77.50;;;;;;6276158;22;20315;-84
2023/07/10 14:28:09;;;;;;;;;;;31.70;78.40;;;;;;6276596;22;19911;-83